sensor_id;sensor_type;location;lat;lon;timestamp;P1;durP1;ratioP1;P2;durP2;ratioP2
21091;SDS011;10704;42.678;23.288;2023-05-13T00:01:28;5.75;;;2.50;;
21091;SDS011;10704;42.678;23.288;2023-05-13T00:03:54;5.10;;;2.40;;
21091;SDS011;10704;42.678;23.288;2023-05-13T00:06:20;5.40;;;2.50;;
21091;SDS011;10704;42.678;23.288;2023-05-13T00:08:46;10.85;;;2.90;;
21091;SDS011;10704;42.678;23.288;2023-05-13T00:11:12;5.13;;;2.53;;
21091;SDS011;10704;42.678;23.288;2023-05-13T00:13:37;5.03;;;2.30;;
21091;SDS011;10704;42.678;23.288;2023-05-13T00:16:03;13.40;;;3.80;;
21091;SDS011;10704;42.678;23.288;2023-05-13T00:18:29;5.68;;;2.75;;
21091;SDS011;10704;42.678;23.288;2023-05-13T00:20:55;6.18;;;3.25;;
21091;SDS011;10704;42.678;23.288;2023-05-13T00:23:21;5.95;;;3.58;;
21091;SDS011;10704;42.678;23.288;2023-05-13T00:25:47;5.38;;;3.58;;
21091;SDS011;10704;42.678;23.288;2023-05-13T00:28:13;6.05;;;3.45;;
21091;SDS011;10704;42.678;23.288;2023-05-13T00:30:42;6.97;;;4.00;;
21091;SDS011;10704;42.678;23.288;2023-05-13T00:33:09;13.77;;;8.55;;
21091;SDS011;10704;42.678;23.288;2023-05-13T00:35:36;14.02;;;8.70;;
21091;SDS011;10704;42.678;23.288;2023-05-13T00:38:02;11.20;;;8.55;;
21091;SDS011;10704;42.678;23.288;2023-05-13T00:40:28;11.65;;;7.10;;
21091;SDS011;10704;42.678;23.288;2023-05-13T00:42:53;8.30;;;5.72;;
21091;SDS011;10704;42.678;23.288;2023-05-13T00:45:19;10.52;;;6.03;;
21091;SDS011;10704;42.678;23.288;2023-05-13T00:47:46;8.93;;;5.43;;
21091;SDS011;10704;42.678;23.288;2023-05-13T00:50:13;9.68;;;6.03;;
21091;SDS011;10704;42.678;23.288;2023-05-13T00:52:39;11.00;;;5.85;;
21091;SDS011;10704;42.678;23.288;2023-05-13T00:55:07;12.73;;;6.00;;
21091;SDS011;10704;42.678;23.288;2023-05-13T00:57:34;9.93;;;6.10;;
21091;SDS011;10704;42.678;23.288;2023-05-13T01:00:00;9.95;;;5.82;;
21091;SDS011;10704;42.678;23.288;2023-05-13T01:02:30;12.35;;;7.43;;
21091;SDS011;10704;42.678;23.288;2023-05-13T01:10:22;10.63;;;6.15;;
21091;SDS011;10704;42.678;23.288;2023-05-13T01:13:12;9.90;;;5.68;;
21091;SDS011;10704;42.678;23.288;2023-05-13T01:18:30;12.73;;;6.68;;
21091;SDS011;10704;42.678;23.288;2023-05-13T01:21:01;11.43;;;6.95;;
21091;SDS011;10704;42.678;23.288;2023-05-13T01:23:29;11.40;;;7.90;;
21091;SDS011;10704;42.678;23.288;2023-05-13T01:25:55;10.35;;;6.78;;
21091;SDS011;10704;42.678;23.288;2023-05-13T01:28:22;14.52;;;7.55;;
21091;SDS011;10704;42.678;23.288;2023-05-13T01:30:51;14.15;;;7.22;;
21091;SDS011;10704;42.678;23.288;2023-05-13T01:33:20;12.43;;;7.53;;
21091;SDS011;10704;42.678;23.288;2023-05-13T01:35:47;14.15;;;7.22;;
21091;SDS011;10704;42.678;23.288;2023-05-13T01:38:15;11.23;;;7.10;;
21091;SDS011;10704;42.678;23.288;2023-05-13T01:40:47;11.10;;;6.95;;
21091;SDS011;10704;42.678;23.288;2023-05-13T01:43:13;11.32;;;6.63;;
21091;SDS011;10704;42.678;23.288;2023-05-13T01:45:39;11.30;;;7.15;;
21091;SDS011;10704;42.678;23.288;2023-05-13T01:48:06;9.93;;;6.47;;
21091;SDS011;10704;42.678;23.288;2023-05-13T01:50:39;10.93;;;6.75;;
21091;SDS011;10704;42.678;23.288;2023-05-13T01:53:06;9.77;;;6.57;;
21091;SDS011;10704;42.678;23.288;2023-05-13T01:55:32;12.98;;;6.65;;
21091;SDS011;10704;42.678;23.288;2023-05-13T01:58:00;11.13;;;6.78;;
21091;SDS011;10704;42.678;23.288;2023-05-13T02:00:25;12.35;;;7.10;;
21091;SDS011;10704;42.678;23.288;2023-05-13T02:02:51;8.93;;;6.15;;
21091;SDS011;10704;42.678;23.288;2023-05-13T02:05:17;11.05;;;6.65;;
21091;SDS011;10704;42.678;23.288;2023-05-13T02:07:43;11.90;;;6.68;;
21091;SDS011;10704;42.678;23.288;2023-05-13T02:10:09;11.50;;;7.38;;
21091;SDS011;10704;42.678;23.288;2023-05-13T02:12:35;15.75;;;8.63;;
21091;SDS011;10704;42.678;23.288;2023-05-13T02:15:02;12.18;;;7.18;;
21091;SDS011;10704;42.678;23.288;2023-05-13T02:17:29;14.25;;;7.68;;
21091;SDS011;10704;42.678;23.288;2023-05-13T02:19:55;12.15;;;6.35;;
21091;SDS011;10704;42.678;23.288;2023-05-13T02:22:21;9.88;;;5.45;;
21091;SDS011;10704;42.678;23.288;2023-05-13T02:24:47;8.30;;;5.10;;
21091;SDS011;10704;42.678;23.288;2023-05-13T02:27:13;9.52;;;4.97;;
21091;SDS011;10704;42.678;23.288;2023-05-13T02:29:41;9.55;;;6.20;;
21091;SDS011;10704;42.678;23.288;2023-05-13T02:32:07;7.63;;;5.45;;
21091;SDS011;10704;42.678;23.288;2023-05-13T02:34:33;10.55;;;6.07;;
21091;SDS011;10704;42.678;23.288;2023-05-13T02:36:59;8.23;;;4.88;;
21091;SDS011;10704;42.678;23.288;2023-05-13T02:39:25;12.73;;;6.32;;
21091;SDS011;10704;42.678;23.288;2023-05-13T02:41:54;9.60;;;6.28;;
21091;SDS011;10704;42.678;23.288;2023-05-13T02:44:21;11.82;;;5.80;;
21091;SDS011;10704;42.678;23.288;2023-05-13T02:46:47;7.50;;;4.95;;
21091;SDS011;10704;42.678;23.288;2023-05-13T02:49:13;11.75;;;8.00;;
21091;SDS011;10704;42.678;23.288;2023-05-13T02:51:39;21.75;;;10.07;;
21091;SDS011;10704;42.678;23.288;2023-05-13T02:54:05;17.67;;;8.45;;
21091;SDS011;10704;42.678;23.288;2023-05-13T02:56:32;12.02;;;8.32;;
21091;SDS011;10704;42.678;23.288;2023-05-13T02:58:58;12.55;;;8.35;;
21091;SDS011;10704;42.678;23.288;2023-05-13T03:01:24;11.68;;;7.75;;
21091;SDS011;10704;42.678;23.288;2023-05-13T03:03:51;10.70;;;7.07;;
21091;SDS011;10704;42.678;23.288;2023-05-13T03:06:16;13.32;;;7.35;;
21091;SDS011;10704;42.678;23.288;2023-05-13T03:08:42;10.65;;;7.22;;
21091;SDS011;10704;42.678;23.288;2023-05-13T03:11:09;10.00;;;6.85;;
21091;SDS011;10704;42.678;23.288;2023-05-13T03:13:37;15.23;;;7.60;;
21091;SDS011;10704;42.678;23.288;2023-05-13T03:16:03;12.73;;;7.65;;
21091;SDS011;10704;42.678;23.288;2023-05-13T03:18:29;11.02;;;7.25;;
21091;SDS011;10704;42.678;23.288;2023-05-13T03:20:57;13.10;;;7.38;;
21091;SDS011;10704;42.678;23.288;2023-05-13T03:23:23;13.77;;;7.03;;
21091;SDS011;10704;42.678;23.288;2023-05-13T03:25:52;12.77;;;7.40;;
21091;SDS011;10704;42.678;23.288;2023-05-13T03:28:18;12.02;;;7.45;;
21091;SDS011;10704;42.678;23.288;2023-05-13T03:30:44;10.43;;;7.60;;
21091;SDS011;10704;42.678;23.288;2023-05-13T03:33:16;11.13;;;7.60;;
21091;SDS011;10704;42.678;23.288;2023-05-13T03:35:42;9.70;;;6.72;;
21091;SDS011;10704;42.678;23.288;2023-05-13T03:38:09;7.60;;;5.72;;
21091;SDS011;10704;42.678;23.288;2023-05-13T03:40:39;9.18;;;5.93;;
21091;SDS011;10704;42.678;23.288;2023-05-13T03:43:06;10.38;;;6.40;;
21091;SDS011;10704;42.678;23.288;2023-05-13T03:45:34;7.93;;;5.38;;
21091;SDS011;10704;42.678;23.288;2023-05-13T03:48:04;11.23;;;6.05;;
21091;SDS011;10704;42.678;23.288;2023-05-13T03:50:30;11.82;;;7.13;;
21091;SDS011;10704;42.678;23.288;2023-05-13T03:52:56;12.07;;;7.75;;
21091;SDS011;10704;42.678;23.288;2023-05-13T03:55:22;19.45;;;9.70;;
21091;SDS011;10704;42.678;23.288;2023-05-13T03:57:48;13.02;;;7.72;;
21091;SDS011;10704;42.678;23.288;2023-05-13T04:00:16;13.23;;;6.93;;
21091;SDS011;10704;42.678;23.288;2023-05-13T04:02:42;11.10;;;7.45;;
21091;SDS011;10704;42.678;23.288;2023-05-13T04:05:09;11.32;;;6.65;;
21091;SDS011;10704;42.678;23.288;2023-05-13T04:07:35;10.63;;;7.38;;
21091;SDS011;10704;42.678;23.288;2023-05-13T04:10:01;11.98;;;7.95;;
21091;SDS011;10704;42.678;23.288;2023-05-13T04:12:28;14.75;;;7.63;;
21091;SDS011;10704;42.678;23.288;2023-05-13T04:14:55;11.82;;;7.88;;
21091;SDS011;10704;42.678;23.288;2023-05-13T04:17:20;20.05;;;11.13;;
21091;SDS011;10704;42.678;23.288;2023-05-13T04:19:46;18.55;;;9.45;;
21091;SDS011;10704;42.678;23.288;2023-05-13T04:22:12;12.35;;;8.75;;
21091;SDS011;10704;42.678;23.288;2023-05-13T04:24:38;12.98;;;8.40;;
21091;SDS011;10704;42.678;23.288;2023-05-13T04:27:05;15.45;;;8.82;;
21091;SDS011;10704;42.678;23.288;2023-05-13T04:29:31;16.40;;;8.98;;
21091;SDS011;10704;42.678;23.288;2023-05-13T04:31:56;13.48;;;8.30;;
21091;SDS011;10704;42.678;23.288;2023-05-13T04:34:22;12.85;;;8.48;;
21091;SDS011;10704;42.678;23.288;2023-05-13T04:36:48;12.93;;;8.13;;
21091;SDS011;10704;42.678;23.288;2023-05-13T04:39:14;12.27;;;8.57;;
21091;SDS011;10704;42.678;23.288;2023-05-13T04:41:42;15.75;;;8.38;;
21091;SDS011;10704;42.678;23.288;2023-05-13T04:44:07;12.75;;;8.00;;
21091;SDS011;10704;42.678;23.288;2023-05-13T04:46:33;13.93;;;8.52;;
21091;SDS011;10704;42.678;23.288;2023-05-13T04:49:02;11.40;;;7.43;;
21091;SDS011;10704;42.678;23.288;2023-05-13T04:51:27;13.05;;;8.75;;
21091;SDS011;10704;42.678;23.288;2023-05-13T04:53:53;10.50;;;7.28;;
21091;SDS011;10704;42.678;23.288;2023-05-13T04:56:19;10.35;;;7.38;;
21091;SDS011;10704;42.678;23.288;2023-05-13T04:58:46;11.75;;;7.85;;
21091;SDS011;10704;42.678;23.288;2023-05-13T05:01:13;13.40;;;7.63;;
21091;SDS011;10704;42.678;23.288;2023-05-13T05:03:39;10.85;;;7.15;;
21091;SDS011;10704;42.678;23.288;2023-05-13T05:06:05;10.95;;;6.85;;
21091;SDS011;10704;42.678;23.288;2023-05-13T05:08:31;14.25;;;7.88;;
21091;SDS011;10704;42.678;23.288;2023-05-13T05:10:58;13.65;;;7.63;;
21091;SDS011;10704;42.678;23.288;2023-05-13T05:13:25;13.18;;;7.85;;
21091;SDS011;10704;42.678;23.288;2023-05-13T05:15:51;10.95;;;6.95;;
21091;SDS011;10704;42.678;23.288;2023-05-13T05:18:17;12.35;;;7.97;;
21091;SDS011;10704;42.678;23.288;2023-05-13T05:20:46;12.18;;;6.88;;
21091;SDS011;10704;42.678;23.288;2023-05-13T05:23:15;8.75;;;5.97;;
21091;SDS011;10704;42.678;23.288;2023-05-13T05:25:42;9.07;;;6.20;;
21091;SDS011;10704;42.678;23.288;2023-05-13T05:28:08;9.70;;;5.82;;
21091;SDS011;10704;42.678;23.288;2023-05-13T05:30:35;8.48;;;5.22;;
21091;SDS011;10704;42.678;23.288;2023-05-13T05:33:07;10.27;;;5.10;;
21091;SDS011;10704;42.678;23.288;2023-05-13T05:35:36;7.63;;;4.80;;
21091;SDS011;10704;42.678;23.288;2023-05-13T05:38:05;10.75;;;5.15;;
21091;SDS011;10704;42.678;23.288;2023-05-13T05:40:33;10.05;;;5.55;;
21091;SDS011;10704;42.678;23.288;2023-05-13T05:43:01;11.18;;;5.68;;
21091;SDS011;10704;42.678;23.288;2023-05-13T05:45:27;9.82;;;5.78;;
21091;SDS011;10704;42.678;23.288;2023-05-13T05:47:53;10.52;;;6.07;;
21091;SDS011;10704;42.678;23.288;2023-05-13T05:50:19;8.48;;;5.60;;
21091;SDS011;10704;42.678;23.288;2023-05-13T05:52:45;10.13;;;6.60;;
21091;SDS011;10704;42.678;23.288;2023-05-13T05:55:12;13.02;;;7.57;;
21091;SDS011;10704;42.678;23.288;2023-05-13T05:57:38;15.07;;;7.10;;
21091;SDS011;10704;42.678;23.288;2023-05-13T06:00:04;10.13;;;6.82;;
21091;SDS011;10704;42.678;23.288;2023-05-13T06:02:40;10.43;;;6.53;;
21091;SDS011;10704;42.678;23.288;2023-05-13T06:05:07;11.77;;;6.65;;
21091;SDS011;10704;42.678;23.288;2023-05-13T06:07:35;10.85;;;6.82;;
21091;SDS011;10704;42.678;23.288;2023-05-13T06:10:01;14.27;;;6.80;;
21091;SDS011;10704;42.678;23.288;2023-05-13T06:12:27;12.85;;;7.60;;
21091;SDS011;10704;42.678;23.288;2023-05-13T06:14:53;11.80;;;7.43;;
21091;SDS011;10704;42.678;23.288;2023-05-13T06:17:19;13.52;;;7.38;;
21091;SDS011;10704;42.678;23.288;2023-05-13T06:19:45;13.15;;;7.63;;
21091;SDS011;10704;42.678;23.288;2023-05-13T06:22:11;15.75;;;8.18;;
21091;SDS011;10704;42.678;23.288;2023-05-13T06:24:37;12.02;;;7.40;;
21091;SDS011;10704;42.678;23.288;2023-05-13T06:27:05;15.35;;;7.05;;
21091;SDS011;10704;42.678;23.288;2023-05-13T06:29:31;13.25;;;6.95;;
21091;SDS011;10704;42.678;23.288;2023-05-13T06:31:57;10.65;;;7.30;;
21091;SDS011;10704;42.678;23.288;2023-05-13T06:34:23;13.43;;;7.13;;
21091;SDS011;10704;42.678;23.288;2023-05-13T06:36:48;11.57;;;6.82;;
21091;SDS011;10704;42.678;23.288;2023-05-13T06:39:14;8.10;;;5.35;;
21091;SDS011;10704;42.678;23.288;2023-05-13T06:41:40;12.07;;;5.85;;
21091;SDS011;10704;42.678;23.288;2023-05-13T06:44:13;11.52;;;5.97;;
21091;SDS011;10704;42.678;23.288;2023-05-13T06:46:43;10.18;;;5.18;;
21091;SDS011;10704;42.678;23.288;2023-05-13T06:49:10;12.30;;;5.35;;
21091;SDS011;10704;42.678;23.288;2023-05-13T06:51:36;10.23;;;5.68;;
21091;SDS011;10704;42.678;23.288;2023-05-13T06:54:01;10.95;;;5.05;;
21091;SDS011;10704;42.678;23.288;2023-05-13T06:56:28;10.23;;;5.53;;
21091;SDS011;10704;42.678;23.288;2023-05-13T06:58:54;10.63;;;5.82;;
21091;SDS011;10704;42.678;23.288;2023-05-13T07:01:20;11.20;;;5.25;;
21091;SDS011;10704;42.678;23.288;2023-05-13T07:03:47;6.43;;;4.10;;
21091;SDS011;10704;42.678;23.288;2023-05-13T07:06:13;8.70;;;5.55;;
21091;SDS011;10704;42.678;23.288;2023-05-13T07:08:39;9.02;;;4.82;;
21091;SDS011;10704;42.678;23.288;2023-05-13T07:11:05;9.18;;;4.47;;
21091;SDS011;10704;42.678;23.288;2023-05-13T07:13:30;11.15;;;5.05;;
21091;SDS011;10704;42.678;23.288;2023-05-13T07:15:59;8.30;;;4.82;;
21091;SDS011;10704;42.678;23.288;2023-05-13T07:18:27;9.40;;;4.65;;
21091;SDS011;10704;42.678;23.288;2023-05-13T07:20:53;9.32;;;5.35;;
21091;SDS011;10704;42.678;23.288;2023-05-13T07:23:20;11.43;;;4.55;;
21091;SDS011;10704;42.678;23.288;2023-05-13T07:25:47;9.10;;;5.13;;
21091;SDS011;10704;42.678;23.288;2023-05-13T07:28:15;8.10;;;4.63;;
21091;SDS011;10704;42.678;23.288;2023-05-13T07:30:41;9.43;;;5.18;;
21091;SDS011;10704;42.678;23.288;2023-05-13T07:33:07;8.93;;;4.57;;
21091;SDS011;10704;42.678;23.288;2023-05-13T07:35:32;9.88;;;4.75;;
21091;SDS011;10704;42.678;23.288;2023-05-13T07:37:58;7.78;;;4.22;;
21091;SDS011;10704;42.678;23.288;2023-05-13T07:40:24;11.45;;;5.32;;
21091;SDS011;10704;42.678;23.288;2023-05-13T07:42:50;8.98;;;5.00;;
21091;SDS011;10704;42.678;23.288;2023-05-13T07:45:16;10.30;;;5.35;;
21091;SDS011;10704;42.678;23.288;2023-05-13T07:47:42;6.82;;;4.40;;
21091;SDS011;10704;42.678;23.288;2023-05-13T07:50:07;8.43;;;5.20;;
21091;SDS011;10704;42.678;23.288;2023-05-13T07:52:33;9.25;;;4.88;;
21091;SDS011;10704;42.678;23.288;2023-05-13T07:54:59;8.30;;;4.50;;
21091;SDS011;10704;42.678;23.288;2023-05-13T07:57:25;8.55;;;4.70;;
21091;SDS011;10704;42.678;23.288;2023-05-13T07:59:51;9.45;;;4.95;;
21091;SDS011;10704;42.678;23.288;2023-05-13T08:02:18;8.40;;;4.85;;
21091;SDS011;10704;42.678;23.288;2023-05-13T08:04:44;11.52;;;5.63;;
21091;SDS011;10704;42.678;23.288;2023-05-13T08:07:10;10.75;;;5.18;;
21091;SDS011;10704;42.678;23.288;2023-05-13T08:09:36;7.43;;;4.60;;
21091;SDS011;10704;42.678;23.288;2023-05-13T08:12:02;10.55;;;5.00;;
21091;SDS011;10704;42.678;23.288;2023-05-13T08:14:28;8.23;;;3.97;;
21091;SDS011;10704;42.678;23.288;2023-05-13T08:16:54;9.15;;;5.53;;
21091;SDS011;10704;42.678;23.288;2023-05-13T08:19:20;9.55;;;5.22;;
21091;SDS011;10704;42.678;23.288;2023-05-13T08:21:46;9.57;;;6.00;;
21091;SDS011;10704;42.678;23.288;2023-05-13T08:24:11;12.15;;;6.53;;
21091;SDS011;10704;42.678;23.288;2023-05-13T08:26:38;12.55;;;5.65;;
21091;SDS011;10704;42.678;23.288;2023-05-13T08:29:04;10.82;;;6.25;;
21091;SDS011;10704;42.678;23.288;2023-05-13T08:31:30;14.25;;;6.93;;
21091;SDS011;10704;42.678;23.288;2023-05-13T08:33:56;10.63;;;5.90;;
21091;SDS011;10704;42.678;23.288;2023-05-13T08:36:22;16.75;;;6.45;;
21091;SDS011;10704;42.678;23.288;2023-05-13T08:38:50;11.75;;;6.80;;
21091;SDS011;10704;42.678;23.288;2023-05-13T08:41:15;10.55;;;5.63;;
21091;SDS011;10704;42.678;23.288;2023-05-13T08:43:42;9.93;;;5.50;;
21091;SDS011;10704;42.678;23.288;2023-05-13T08:46:09;9.18;;;5.53;;
21091;SDS011;10704;42.678;23.288;2023-05-13T08:48:39;8.95;;;5.57;;
21091;SDS011;10704;42.678;23.288;2023-05-13T08:51:06;9.35;;;4.90;;
21091;SDS011;10704;42.678;23.288;2023-05-13T08:53:36;9.93;;;5.25;;
21091;SDS011;10704;42.678;23.288;2023-05-13T08:56:03;12.57;;;5.95;;
21091;SDS011;10704;42.678;23.288;2023-05-13T08:58:31;12.60;;;6.20;;
21091;SDS011;10704;42.678;23.288;2023-05-13T09:00:57;8.98;;;5.97;;
21091;SDS011;10704;42.678;23.288;2023-05-13T09:03:23;11.65;;;7.47;;
21091;SDS011;10704;42.678;23.288;2023-05-13T09:05:52;11.38;;;6.40;;
21091;SDS011;10704;42.678;23.288;2023-05-13T09:08:17;9.65;;;7.03;;
21091;SDS011;10704;42.678;23.288;2023-05-13T09:10:43;11.77;;;6.75;;
21091;SDS011;10704;42.678;23.288;2023-05-13T09:13:12;10.02;;;6.85;;
21091;SDS011;10704;42.678;23.288;2023-05-13T09:15:41;11.40;;;6.70;;
21091;SDS011;10704;42.678;23.288;2023-05-13T09:18:07;14.40;;;6.38;;
21091;SDS011;10704;42.678;23.288;2023-05-13T09:20:33;9.95;;;6.93;;
21091;SDS011;10704;42.678;23.288;2023-05-13T09:23:00;12.25;;;6.93;;
21091;SDS011;10704;42.678;23.288;2023-05-13T09:25:26;9.52;;;5.82;;
21091;SDS011;10704;42.678;23.288;2023-05-13T09:27:54;9.95;;;6.13;;
21091;SDS011;10704;42.678;23.288;2023-05-13T09:30:31;13.13;;;6.47;;
21091;SDS011;10704;42.678;23.288;2023-05-13T09:33:08;10.30;;;6.43;;
21091;SDS011;10704;42.678;23.288;2023-05-13T09:35:38;9.88;;;6.13;;
21091;SDS011;10704;42.678;23.288;2023-05-13T09:38:16;8.80;;;5.72;;
21091;SDS011;10704;42.678;23.288;2023-05-13T09:40:56;12.73;;;6.43;;
21091;SDS011;10704;42.678;23.288;2023-05-13T09:43:32;9.60;;;6.45;;
21091;SDS011;10704;42.678;23.288;2023-05-13T09:46:02;10.95;;;6.65;;
21091;SDS011;10704;42.678;23.288;2023-05-13T09:48:30;11.00;;;6.45;;
21091;SDS011;10704;42.678;23.288;2023-05-13T09:50:58;11.43;;;6.43;;
21091;SDS011;10704;42.678;23.288;2023-05-13T09:53:24;8.43;;;5.03;;
21091;SDS011;10704;42.678;23.288;2023-05-13T09:55:52;9.68;;;4.88;;
21091;SDS011;10704;42.678;23.288;2023-05-13T09:58:20;7.93;;;5.40;;
21091;SDS011;10704;42.678;23.288;2023-05-13T10:00:49;10.23;;;5.65;;
21091;SDS011;10704;42.678;23.288;2023-05-13T10:03:15;10.63;;;6.35;;
21091;SDS011;10704;42.678;23.288;2023-05-13T10:05:41;9.68;;;6.28;;
21091;SDS011;10704;42.678;23.288;2023-05-13T10:08:08;11.30;;;5.63;;
21091;SDS011;10704;42.678;23.288;2023-05-13T10:10:36;7.65;;;5.55;;
21091;SDS011;10704;42.678;23.288;2023-05-13T10:13:04;7.20;;;4.78;;
21091;SDS011;10704;42.678;23.288;2023-05-13T10:15:32;6.97;;;5.40;;
21091;SDS011;10704;42.678;23.288;2023-05-13T10:17:59;8.43;;;6.03;;
21091;SDS011;10704;42.678;23.288;2023-05-13T10:20:25;8.82;;;6.85;;
21091;SDS011;10704;42.678;23.288;2023-05-13T10:22:52;13.05;;;7.18;;
21091;SDS011;10704;42.678;23.288;2023-05-13T10:25:19;9.27;;;5.95;;
21091;SDS011;10704;42.678;23.288;2023-05-13T10:27:46;9.77;;;6.45;;
21091;SDS011;10704;42.678;23.288;2023-05-13T10:30:13;12.05;;;6.57;;
21091;SDS011;10704;42.678;23.288;2023-05-13T10:32:41;9.48;;;6.60;;
21091;SDS011;10704;42.678;23.288;2023-05-13T10:35:09;12.80;;;5.85;;
21091;SDS011;10704;42.678;23.288;2023-05-13T10:40:35;10.65;;;6.97;;
21091;SDS011;10704;42.678;23.288;2023-05-13T10:43:19;10.40;;;7.43;;
21091;SDS011;10704;42.678;23.288;2023-05-13T10:45:50;12.35;;;7.10;;
21091;SDS011;10704;42.678;23.288;2023-05-13T10:48:41;8.40;;;6.20;;
21091;SDS011;10704;42.678;23.288;2023-05-13T10:51:21;9.23;;;5.88;;
21091;SDS011;10704;42.678;23.288;2023-05-13T10:53:49;10.00;;;6.10;;
21091;SDS011;10704;42.678;23.288;2023-05-13T10:56:20;12.73;;;7.43;;
21091;SDS011;10704;42.678;23.288;2023-05-13T10:58:58;11.20;;;7.00;;
21091;SDS011;10704;42.678;23.288;2023-05-13T11:01:29;8.40;;;6.95;;
21091;SDS011;10704;42.678;23.288;2023-05-13T11:04:00;9.80;;;6.70;;
21091;SDS011;10704;42.678;23.288;2023-05-13T11:06:37;11.35;;;7.47;;
21091;SDS011;10704;42.678;23.288;2023-05-13T11:09:50;11.13;;;7.13;;
21091;SDS011;10704;42.678;23.288;2023-05-13T11:11:53;12.10;;;6.65;;
21091;SDS011;10704;42.678;23.288;2023-05-13T11:14:21;10.73;;;6.47;;
21091;SDS011;10704;42.678;23.288;2023-05-13T11:16:53;9.50;;;6.30;;
21091;SDS011;10704;42.678;23.288;2023-05-13T11:19:28;10.93;;;6.93;;
21091;SDS011;10704;42.678;23.288;2023-05-13T11:21:55;13.35;;;7.25;;
21091;SDS011;10704;42.678;23.288;2023-05-13T11:24:45;11.45;;;6.63;;
21091;SDS011;10704;42.678;23.288;2023-05-13T11:27:36;9.75;;;6.38;;
21091;SDS011;10704;42.678;23.288;2023-05-13T11:30:07;11.25;;;7.07;;
21091;SDS011;10704;42.678;23.288;2023-05-13T11:32:51;12.95;;;7.40;;
21091;SDS011;10704;42.678;23.288;2023-05-13T11:35:20;10.00;;;6.47;;
21091;SDS011;10704;42.678;23.288;2023-05-13T11:38:00;8.18;;;6.47;;
21091;SDS011;10704;42.678;23.288;2023-05-13T11:40:28;10.77;;;6.20;;
21091;SDS011;10704;42.678;23.288;2023-05-13T11:43:00;9.35;;;6.15;;
21091;SDS011;10704;42.678;23.288;2023-05-13T11:45:29;9.00;;;5.72;;
21091;SDS011;10704;42.678;23.288;2023-05-13T11:47:55;10.75;;;7.35;;
21091;SDS011;10704;42.678;23.288;2023-05-13T11:50:26;9.05;;;6.80;;
21091;SDS011;10704;42.678;23.288;2023-05-13T11:52:57;8.77;;;6.20;;
21091;SDS011;10704;42.678;23.288;2023-05-13T11:57:54;10.45;;;6.30;;
21091;SDS011;10704;42.678;23.288;2023-05-13T12:00:24;11.07;;;5.90;;
21091;SDS011;10704;42.678;23.288;2023-05-13T12:02:51;10.25;;;7.05;;
21091;SDS011;10704;42.678;23.288;2023-05-13T12:05:17;12.90;;;6.32;;
21091;SDS011;10704;42.678;23.288;2023-05-13T12:07:43;9.20;;;7.13;;
21091;SDS011;10704;42.678;23.288;2023-05-13T12:10:09;7.68;;;4.97;;
21091;SDS011;10704;42.678;23.288;2023-05-13T12:12:39;11.18;;;5.47;;
21091;SDS011;10704;42.678;23.288;2023-05-13T12:15:14;10.48;;;4.95;;
21091;SDS011;10704;42.678;23.288;2023-05-13T12:17:41;8.80;;;4.78;;
21091;SDS011;10704;42.678;23.288;2023-05-13T12:28:14;10.73;;;5.30;;
21091;SDS011;10704;42.678;23.288;2023-05-13T12:30:52;9.13;;;5.32;;
21091;SDS011;10704;42.678;23.288;2023-05-13T12:33:30;7.95;;;5.68;;
21091;SDS011;10704;42.678;23.288;2023-05-13T12:38:55;10.80;;;5.03;;
21091;SDS011;10704;42.678;23.288;2023-05-13T12:41:21;10.88;;;5.63;;
21091;SDS011;10704;42.678;23.288;2023-05-13T12:43:50;9.40;;;5.15;;
21091;SDS011;10704;42.678;23.288;2023-05-13T12:46:20;11.40;;;6.63;;
21091;SDS011;10704;42.678;23.288;2023-05-13T12:48:46;7.93;;;5.40;;
21091;SDS011;10704;42.678;23.288;2023-05-13T12:51:12;8.40;;;5.60;;
21091;SDS011;10704;42.678;23.288;2023-05-13T12:53:39;8.73;;;5.32;;
21091;SDS011;10704;42.678;23.288;2023-05-13T12:56:06;9.77;;;5.00;;
21091;SDS011;10704;42.678;23.288;2023-05-13T12:58:32;7.55;;;5.63;;
21091;SDS011;10704;42.678;23.288;2023-05-13T13:00:57;10.68;;;5.90;;
21091;SDS011;10704;42.678;23.288;2023-05-13T13:03:23;9.20;;;6.28;;
21091;SDS011;10704;42.678;23.288;2023-05-13T13:05:49;9.95;;;5.53;;
21091;SDS011;10704;42.678;23.288;2023-05-13T13:08:16;8.18;;;5.20;;
21091;SDS011;10704;42.678;23.288;2023-05-13T13:10:42;7.78;;;5.00;;
21091;SDS011;10704;42.678;23.288;2023-05-13T13:13:08;9.77;;;5.85;;
21091;SDS011;10704;42.678;23.288;2023-05-13T13:15:33;11.02;;;5.68;;
21091;SDS011;10704;42.678;23.288;2023-05-13T13:17:59;9.55;;;4.93;;
21091;SDS011;10704;42.678;23.288;2023-05-13T13:20:25;9.75;;;6.10;;
21091;SDS011;10704;42.678;23.288;2023-05-13T13:22:52;11.07;;;6.00;;
21091;SDS011;10704;42.678;23.288;2023-05-13T13:25:19;8.13;;;5.30;;
21091;SDS011;10704;42.678;23.288;2023-05-13T13:27:45;10.30;;;5.15;;
21091;SDS011;10704;42.678;23.288;2023-05-13T13:30:11;10.45;;;5.65;;
21091;SDS011;10704;42.678;23.288;2023-05-13T13:32:38;7.53;;;5.28;;
21091;SDS011;10704;42.678;23.288;2023-05-13T13:35:04;9.43;;;5.05;;
21091;SDS011;10704;42.678;23.288;2023-05-13T13:37:31;5.78;;;4.53;;
21091;SDS011;10704;42.678;23.288;2023-05-13T13:39:57;9.48;;;4.03;;
21091;SDS011;10704;42.678;23.288;2023-05-13T13:42:23;7.65;;;4.60;;
21091;SDS011;10704;42.678;23.288;2023-05-13T13:44:48;8.00;;;4.28;;
21091;SDS011;10704;42.678;23.288;2023-05-13T13:47:14;6.57;;;4.63;;
21091;SDS011;10704;42.678;23.288;2023-05-13T13:49:40;9.30;;;4.53;;
21091;SDS011;10704;42.678;23.288;2023-05-13T13:52:06;8.90;;;5.20;;
21091;SDS011;10704;42.678;23.288;2023-05-13T13:54:32;12.00;;;10.55;;
21091;SDS011;10704;42.678;23.288;2023-05-13T13:56:58;7.82;;;4.72;;
21091;SDS011;10704;42.678;23.288;2023-05-13T13:59:24;10.15;;;4.53;;
21091;SDS011;10704;42.678;23.288;2023-05-13T14:01:50;8.05;;;4.45;;
21091;SDS011;10704;42.678;23.288;2023-05-13T14:04:17;6.90;;;3.63;;
21091;SDS011;10704;42.678;23.288;2023-05-13T14:06:47;9.00;;;4.25;;
21091;SDS011;10704;42.678;23.288;2023-05-13T14:09:14;13.02;;;7.72;;
21091;SDS011;10704;42.678;23.288;2023-05-13T14:11:40;7.72;;;4.72;;
21091;SDS011;10704;42.678;23.288;2023-05-13T14:14:06;8.90;;;4.03;;
21091;SDS011;10704;42.678;23.288;2023-05-13T14:16:32;8.45;;;5.00;;
21091;SDS011;10704;42.678;23.288;2023-05-13T14:18:59;7.35;;;4.35;;
21091;SDS011;10704;42.678;23.288;2023-05-13T14:21:25;9.95;;;4.97;;
21091;SDS011;10704;42.678;23.288;2023-05-13T14:23:50;8.38;;;4.68;;
21091;SDS011;10704;42.678;23.288;2023-05-13T14:26:16;8.65;;;5.13;;
21091;SDS011;10704;42.678;23.288;2023-05-13T14:28:43;7.03;;;5.07;;
21091;SDS011;10704;42.678;23.288;2023-05-13T14:31:09;9.68;;;5.13;;
21091;SDS011;10704;42.678;23.288;2023-05-13T14:33:35;8.15;;;4.90;;
21091;SDS011;10704;42.678;23.288;2023-05-13T14:36:01;9.60;;;4.47;;
21091;SDS011;10704;42.678;23.288;2023-05-13T14:38:27;8.38;;;5.05;;
21091;SDS011;10704;42.678;23.288;2023-05-13T14:40:54;10.20;;;5.03;;
21091;SDS011;10704;42.678;23.288;2023-05-13T14:43:20;14.68;;;6.18;;
21091;SDS011;10704;42.678;23.288;2023-05-13T14:45:46;10.85;;;5.07;;
21091;SDS011;10704;42.678;23.288;2023-05-13T14:48:12;7.20;;;5.10;;
21091;SDS011;10704;42.678;23.288;2023-05-13T14:50:38;9.15;;;4.90;;
21091;SDS011;10704;42.678;23.288;2023-05-13T14:53:04;9.77;;;4.85;;